Heathrow, Florida
Current Conditions -  °F | °C
As of 8:53 AM on Saturday 25 Oct 2014 (Local Time) from KSFB Reporting Station
Clear Clear  
Wind Chill: 66°   Ceiling: Unl
Heat Index: 66°   Visibility: 10mi
Dew Point: 54°   Wind: 9mph
Humidity: 65%   Direction: 340°NNW
Pressure: 29.99"   Gusts: NA
Location:  28.7595°N, 81.3431°W
Report Text: KSFB 251253Z 34008KT 10SM CLR 19/12 A2999 RMK AO2 SLP153 T01890122
Loading
Personal Weather Stations






























Interactive Weather Map
Tropical Storm Tracking
New forecast layout! Learn more

10-Day Weather Forecast

Advertisements
Track Severe Weather on mobile